Time;durP1;ratioP1;P1;durP2;ratioP2;P2;SDS_P1;SDS_P2;PMS_P1;PMS_P2;Temp;Humidity;BMP_temperature;BMP_pressure;BME280_temperature;BME280_humidity;BME280_pressure;Samples;Min_cycle;Max_cycle;Signal;HPM_P1;HPM_P2
2021/07/13 00:02:08;;;;;;;14.52;9.20;;;;;;;;;;143741;740;46020;-60
2021/07/13 00:04:36;;;;;;;14.85;8.88;;;;;;;;;;143742;565;46022;-60
2021/07/13 00:07:04;;;;;;;12.32;8.68;;;;;;;;;;143744;601;46016;-60
2021/07/13 00:09:33;;;;;;;13.02;8.95;;;;;;;;;;143748;599;46012;-60
2021/07/13 00:12:00;;;;;;;15.77;8.90;;;;;;;;;;143743;692;46027;-60
2021/07/13 00:14:28;;;;;;;13.25;9.57;;;;;;;;;;143742;572;46023;-60
2021/07/13 00:16:55;;;;;;;10.88;8.00;;;;;;;;;;143742;742;46018;-60
2021/07/13 00:19:22;;;;;;;11.27;9.10;;;;;;;;;;143745;578;46022;-60
2021/07/13 00:21:49;;;;;;;11.45;8.25;;;;;;;;;;143743;570;46020;-60
2021/07/13 00:24:16;;;;;;;12.68;8.60;;;;;;;;;;143743;619;46010;-61
2021/07/13 00:26:43;;;;;;;10.70;8.73;;;;;;;;;;143744;595;46016;-61
2021/07/13 00:29:10;;;;;;;10.32;8.38;;;;;;;;;;143746;600;46012;-61
2021/07/13 00:31:37;;;;;;;12.95;9.10;;;;;;;;;;143742;564;47018;-60
2021/07/13 00:34:04;;;;;;;9.65;8.40;;;;;;;;;;143742;622;46022;-60
2021/07/13 00:36:31;;;;;;;15.68;8.85;;;;;;;;;;143744;622;46016;-61
2021/07/13 00:38:58;;;;;;;11.65;8.68;;;;;;;;;;143746;575;46012;-61
2021/07/13 00:41:25;;;;;;;13.43;8.98;;;;;;;;;;143746;604;46018;-61
2021/07/13 00:43:53;;;;;;;10.02;8.63;;;;;;;;;;143743;602;46023;-60
2021/07/13 00:46:20;;;;;;;11.45;9.40;;;;;;;;;;143741;599;46018;-61
2021/07/13 00:48:47;;;;;;;10.48;8.02;;;;;;;;;;143745;577;46012;-60
2021/07/13 00:51:14;;;;;;;9.68;8.25;;;;;;;;;;143743;637;46019;-61
2021/07/13 00:53:43;;;;;;;14.00;8.60;;;;;;;;;;143743;595;46022;-60
2021/07/13 00:56:11;;;;;;;12.90;8.77;;;;;;;;;;143744;570;46016;-60
2021/07/13 00:58:39;;;;;;;16.60;9.65;;;;;;;;;;143748;654;46012;-61
2021/07/13 01:01:07;;;;;;;10.45;8.70;;;;;;;;;;143746;564;46018;-60
2021/07/13 01:03:35;;;;;;;11.93;8.48;;;;;;;;;;143742;625;46022;-60
2021/07/13 01:06:02;;;;;;;16.50;9.15;;;;;;;;;;143745;571;46010;-60
2021/07/13 01:08:56;;;;;;;13.23;8.73;;;;;;;;;;143744;589;46012;-61
2021/07/13 01:11:51;;;;;;;10.75;9.10;;;;;;;;;;143745;776;46018;-61
2021/07/13 01:14:31;;;;;;;12.75;9.45;;;;;;;;;;143742;586;46920;-60
2021/07/13 01:17:13;;;;;;;16.05;9.60;;;;;;;;;;143743;613;46018;-60
2021/07/13 01:20:23;;;;;;;14.65;8.88;;;;;;;;;;143746;577;46020;-60
2021/07/13 01:23:31;;;;;;;13.00;8.77;;;;;;;;;;143743;580;46021;-60
2021/07/13 01:26:57;;;;;;;18.08;8.77;;;;;;;;;;143742;567;46010;-60
2021/07/13 01:29:26;;;;;;;22.10;10.60;;;;;;;;;;143745;576;46016;-60
2021/07/13 01:31:56;;;;;;;23.70;10.32;;;;;;;;;;143744;602;46012;-60
2021/07/13 01:34:31;;;;;;;11.82;8.68;;;;;;;;;;143744;615;46018;-60
2021/07/13 01:37:02;;;;;;;14.57;8.55;;;;;;;;;;143742;613;46023;-60
2021/07/13 01:39:29;;;;;;;15.43;10.18;;;;;;;;;;143744;622;46016;-61
2021/07/13 01:42:01;;;;;;;18.70;11.07;;;;;;;;;;143745;591;46013;-60
2021/07/13 01:44:30;;;;;;;11.55;9.40;;;;;;;;;;143743;612;46021;-60
2021/07/13 01:46:57;;;;;;;17.27;9.68;;;;;;;;;;143742;577;46022;-60
2021/07/13 01:49:27;;;;;;;15.98;9.77;;;;;;;;;;143743;622;46018;-60
2021/07/13 01:51:57;;;;;;;12.55;9.80;;;;;;;;;;143744;570;46012;-60
2021/07/13 01:54:27;;;;;;;13.40;9.10;;;;;;;;;;143744;577;46018;-60
2021/07/13 01:56:57;;;;;;;15.55;9.73;;;;;;;;;;143742;616;46022;-60
2021/07/13 01:59:25;;;;;;;13.23;10.23;;;;;;;;;;143744;618;46016;-60
2021/07/13 02:01:58;;;;;;;12.85;9.02;;;;;;;;;;143748;569;46010;-60
2021/07/13 02:04:34;;;;;;;16.60;9.70;;;;;;;;;;143744;579;46018;-60
2021/07/13 02:07:04;;;;;;;13.35;9.40;;;;;;;;;;143742;635;46023;-60
2021/07/13 02:09:32;;;;;;;10.90;8.55;;;;;;;;;;143744;605;46010;-60
2021/07/13 02:12:02;;;;;;;16.15;9.05;;;;;;;;;;143747;602;46022;-60
2021/07/13 02:14:29;;;;;;;17.75;10.43;;;;;;;;;;143745;607;46019;-60
2021/07/13 02:16:56;;;;;;;20.70;9.95;;;;;;;;;;143742;598;46022;-60
2021/07/13 02:19:25;;;;;;;15.18;9.05;;;;;;;;;;143743;620;46016;-60
2021/07/13 02:21:51;;;;;;;14.82;9.32;;;;;;;;;;143747;730;46023;-60
2021/07/13 02:24:18;;;;;;;21.52;10.32;;;;;;;;;;143745;608;46018;-60
2021/07/13 02:26:55;;;;;;;10.88;8.50;;;;;;;;;;143742;565;46022;-60
2021/07/13 02:29:45;;;;;;;25.67;11.30;;;;;;;;;;143742;564;46018;-61
2021/07/13 02:32:41;;;;;;;17.48;9.13;;;;;;;;;;143746;593;46012;-60
2021/07/13 02:35:09;;;;;;;16.50;10.48;;;;;;;;;;143744;637;46020;-60
2021/07/13 02:37:38;;;;;;;22.80;9.40;;;;;;;;;;143742;612;46023;-61
2021/07/13 02:40:08;;;;;;;12.27;9.18;;;;;;;;;;143742;622;46018;-60
2021/07/13 02:42:35;;;;;;;14.98;9.38;;;;;;;;;;143747;587;46012;-60
2021/07/13 02:45:04;;;;;;;15.68;9.00;;;;;;;;;;143746;623;46018;-60
2021/07/13 02:47:31;;;;;;;11.82;10.23;;;;;;;;;;143743;565;46010;-60
2021/07/13 02:50:01;;;;;;;20.23;9.02;;;;;;;;;;143744;675;46019;-60
2021/07/13 02:52:32;;;;;;;17.50;10.35;;;;;;;;;;143744;604;46023;-60
2021/07/13 02:55:07;;;;;;;12.88;9.40;;;;;;;;;;143744;570;46018;-60
2021/07/13 02:57:34;;;;;;;;;;;;;;;;;;143747;976;46022;-60
2021/07/13 03:00:02;;;;;;;14.30;11.00;;;;;;;;;;143745;572;46921;-60
2021/07/13 03:02:31;;;;;;;13.13;9.25;;;;;;;;;;143747;580;46012;-60
2021/07/13 03:04:58;;;;;;;13.32;10.00;;;;;;;;;;143742;630;47019;-60
2021/07/13 03:07:26;;;;;;;16.10;10.73;;;;;;;;;;143742;595;46022;-60
2021/07/13 03:09:55;;;;;;;20.67;10.88;;;;;;;;;;143744;564;46016;-60
2021/07/13 03:12:22;;;;;;;17.08;11.18;;;;;;;;;;143744;626;46022;-60
2021/07/13 03:14:52;;;;;;;18.95;10.48;;;;;;;;;;143742;575;46018;-60
2021/07/13 03:17:21;;;;;;;14.65;10.27;;;;;;;;;;143740;631;46022;-60
2021/07/13 03:19:48;;;;;;;15.55;9.95;;;;;;;;;;143739;611;46018;-60
2021/07/13 03:22:42;;;;;;;14.45;9.23;;;;;;;;;;143742;610;46012;-60
2021/07/13 03:25:16;;;;;;;14.70;9.77;;;;;;;;;;143741;606;46020;-60
2021/07/13 03:27:45;;;;;;;14.27;9.52;;;;;;;;;;143741;631;46022;-60
2021/07/13 03:30:13;;;;;;;20.42;11.23;;;;;;;;;;143739;805;46018;-60
2021/07/13 03:32:40;;;;;;;16.12;10.35;;;;;;;;;;143743;584;46012;-60
2021/07/13 03:35:08;;;;;;;15.60;9.80;;;;;;;;;;143745;598;46021;-60
2021/07/13 03:37:36;;;;;;;17.27;10.07;;;;;;;;;;143737;581;46919;-60
2021/07/13 03:40:06;;;;;;;29.83;11.00;;;;;;;;;;143741;586;46020;-60
2021/07/13 03:42:33;;;;;;;25.45;11.15;;;;;;;;;;143744;565;46020;-60
2021/07/13 03:45:00;;;;;;;17.77;9.93;;;;;;;;;;143743;573;46020;-60
2021/07/13 03:47:27;;;;;;;18.77;10.48;;;;;;;;;;143740;750;46020;-60
2021/07/13 03:49:55;;;;;;;20.52;10.52;;;;;;;;;;143740;570;46021;-60
2021/07/13 03:52:21;;;;;;;27.62;12.30;;;;;;;;;;143742;569;46012;-60
2021/07/13 03:54:48;;;;;;;26.58;10.80;;;;;;;;;;143740;619;46022;-60
2021/07/13 03:57:16;;;;;;;28.23;10.93;;;;;;;;;;143740;604;46020;-60
2021/07/13 03:59:43;;;;;;;33.03;12.80;;;;;;;;;;143742;616;46018;-60
2021/07/13 04:02:11;;;;;;;24.30;10.18;;;;;;;;;;143744;584;46012;-60
2021/07/13 04:04:37;;;;;;;22.08;10.93;;;;;;;;;;143743;579;46021;-60
2021/07/13 04:07:06;;;;;;;17.55;10.30;;;;;;;;;;143741;702;46010;-61
2021/07/13 04:09:32;;;;;;;27.87;12.32;;;;;;;;;;143741;612;46010;-60
2021/07/13 04:11:59;;;;;;;28.05;11.82;;;;;;;;;;143743;611;46012;-60
2021/07/13 04:14:27;;;;;;;20.10;9.43;;;;;;;;;;143738;602;46023;-60
2021/07/13 04:16:54;;;;;;;15.38;9.52;;;;;;;;;;143738;593;46919;-60
2021/07/13 04:19:21;;;;;;;24.37;11.43;;;;;;;;;;143737;631;46019;-60
2021/07/13 04:21:47;;;;;;;37.58;12.37;;;;;;;;;;143727;596;46012;-60
2021/07/13 04:24:15;;;;;;;45.25;13.73;;;;;;;;;;143728;583;46022;-60
2021/07/13 04:26:42;;;;;;;24.60;11.63;;;;;;;;;;143726;588;46011;-61
2021/07/13 04:29:09;;;;;;;27.83;11.90;;;;;;;;;;143725;564;46020;-60
2021/07/13 04:31:36;;;;;;;27.87;10.95;;;;;;;;;;143728;622;46020;-61
2021/07/13 04:34:09;;;;;;;18.60;11.90;;;;;;;;;;143724;576;46022;-60
2021/07/13 04:36:39;;;;;;;22.27;12.27;;;;;;;;;;143726;604;46918;-60
2021/07/13 04:39:08;;;;;;;26.05;12.20;;;;;;;;;;143726;599;46018;-60
2021/07/13 04:41:35;;;;;;;16.92;10.95;;;;;;;;;;143728;610;46020;-60
2021/07/13 04:44:03;;;;;;;27.58;12.90;;;;;;;;;;143727;566;46023;-60
2021/07/13 04:46:30;;;;;;;35.80;14.23;;;;;;;;;;143728;645;46020;-59
2021/07/13 04:48:57;;;;;;;35.28;16.60;;;;;;;;;;143727;585;46019;-59
2021/07/13 04:51:25;;;;;;;28.35;16.42;;;;;;;;;;143728;569;46012;-59
2021/07/13 04:53:53;;;;;;;31.30;17.27;;;;;;;;;;143727;604;46022;-59
2021/07/13 04:56:19;;;;;;;33.47;16.02;;;;;;;;;;143726;593;46020;-60
2021/07/13 04:58:46;;;;;;;36.25;18.12;;;;;;;;;;143727;744;46018;-59
2021/07/13 05:01:13;;;;;;;41.70;22.02;;;;;;;;;;143728;584;46012;-59
2021/07/13 05:03:40;;;;;;;52.47;25.60;;;;;;;;;;143728;676;46022;-58
2021/07/13 05:06:07;;;;;;;57.60;26.62;;;;;;;;;;143727;626;46010;-58
2021/07/13 05:08:35;;;;;;;60.80;25.37;;;;;;;;;;143727;579;46018;-58
2021/07/13 05:11:02;;;;;;;50.85;22.77;;;;;;;;;;143723;581;48010;-58
2021/07/13 05:13:29;;;;;;;34.53;19.25;;;;;;;;;;143726;571;47023;-58
2021/07/13 05:15:56;;;;;;;42.47;21.65;;;;;;;;;;143726;687;46023;-58
2021/07/13 05:18:23;;;;;;;41.78;17.75;;;;;;;;;;143726;569;46020;-59
2021/07/13 05:20:55;;;;;;;37.35;17.75;;;;;;;;;;143740;724;46021;-59
2021/07/13 05:23:22;;;;;;;36.45;16.92;;;;;;;;;;143743;606;46020;-59
2021/07/13 05:25:49;;;;;;;40.75;16.58;;;;;;;;;;143741;570;46011;-59
2021/07/13 05:28:16;;;;;;;41.25;16.80;;;;;;;;;;143740;578;46020;-58
2021/07/13 05:30:44;;;;;;;31.45;14.50;;;;;;;;;;143743;581;46012;-60
2021/07/13 05:33:15;;;;;;;20.33;12.50;;;;;;;;;;143743;628;46021;-60
2021/07/13 05:35:43;;;;;;;30.98;13.07;;;;;;;;;;143741;657;46020;-60
2021/07/13 05:38:11;;;;;;;25.83;13.77;;;;;;;;;;143742;597;46018;-59
2021/07/13 05:40:39;;;;;;;32.33;14.18;;;;;;;;;;143743;626;46020;-60
2021/07/13 05:43:05;;;;;;;36.72;15.80;;;;;;;;;;143740;572;46023;-60
2021/07/13 05:45:33;;;;;;;29.15;14.15;;;;;;;;;;143740;685;46010;-60
2021/07/13 05:47:59;;;;;;;40.95;15.60;;;;;;;;;;143739;577;46020;-59
2021/07/13 05:50:27;;;;;;;28.20;14.13;;;;;;;;;;143743;569;46021;-59
2021/07/13 05:52:56;;;;;;;30.75;13.68;;;;;;;;;;143744;618;46020;-58
2021/07/13 05:55:24;;;;;;;26.10;12.90;;;;;;;;;;143740;615;46020;-59
2021/07/13 05:57:51;;;;;;;20.42;11.93;;;;;;;;;;143741;588;46018;-60
2021/07/13 06:00:19;;;;;;;23.02;12.45;;;;;;;;;;143745;572;46012;-59
2021/07/13 06:02:46;;;;;;;19.67;12.98;;;;;;;;;;143741;579;46021;-60
2021/07/13 06:05:14;;;;;;;20.00;12.35;;;;;;;;;;143740;564;46020;-60
2021/07/13 06:07:46;;;;;;;18.87;11.93;;;;;;;;;;143742;569;46018;-60
2021/07/13 06:10:13;;;;;;;19.08;10.05;;;;;;;;;;143743;605;46020;-60
2021/07/13 06:12:41;;;;;;;23.35;11.20;;;;;;;;;;143740;565;46023;-60
2021/07/13 06:15:09;;;;;;;24.67;11.30;;;;;;;;;;143739;722;46010;-60
2021/07/13 06:17:36;;;;;;;15.90;10.80;;;;;;;;;;143742;580;46019;-60
2021/07/13 06:20:05;;;;;;;20.50;10.80;;;;;;;;;;143744;566;46012;-60
2021/07/13 06:22:32;;;;;;;24.00;11.70;;;;;;;;;;143742;631;46020;-60
2021/07/13 06:24:59;;;;;;;25.42;11.63;;;;;;;;;;143741;570;46011;-60
2021/07/13 06:27:26;;;;;;;26.58;11.68;;;;;;;;;;143741;581;46018;-60
2021/07/13 06:29:53;;;;;;;26.60;11.65;;;;;;;;;;143744;623;46020;-60
2021/07/13 06:32:20;;;;;;;28.73;11.05;;;;;;;;;;143743;694;46021;-61
2021/07/13 06:34:46;;;;;;;20.25;10.52;;;;;;;;;;143737;564;47917;-61
2021/07/13 06:37:13;;;;;;;18.50;11.07;;;;;;;;;;143739;653;46020;-61
2021/07/13 06:39:40;;;;;;;20.95;10.98;;;;;;;;;;143744;606;46013;-61
2021/07/13 06:42:08;;;;;;;20.85;11.68;;;;;;;;;;143744;630;46020;-61
2021/07/13 06:44:34;;;;;;;27.52;12.35;;;;;;;;;;143739;575;46917;-61
2021/07/13 06:47:02;;;;;;;20.75;12.57;;;;;;;;;;143740;569;46020;-61
2021/07/13 06:49:29;;;;;;;17.87;12.18;;;;;;;;;;143744;565;46012;-61
2021/07/13 06:51:56;;;;;;;22.98;11.82;;;;;;;;;;143743;660;46020;-61
2021/07/13 06:54:23;;;;;;;25.45;10.48;;;;;;;;;;143740;663;46020;-62
2021/07/13 06:56:50;;;;;;;18.83;10.48;;;;;;;;;;143739;577;46021;-62
2021/07/13 06:59:17;;;;;;;23.50;10.20;;;;;;;;;;143744;665;46020;-61
2021/07/13 07:01:44;;;;;;;15.35;10.13;;;;;;;;;;143741;673;46021;-61
2021/07/13 07:04:11;;;;;;;17.75;10.30;;;;;;;;;;143740;583;46021;-62
2021/07/13 07:06:38;;;;;;;19.37;9.63;;;;;;;;;;143741;633;46020;-61
2021/07/13 07:09:05;;;;;;;14.63;9.65;;;;;;;;;;143743;664;46013;-62
2021/07/13 07:11:32;;;;;;;14.82;8.63;;;;;;;;;;143742;656;46021;-62
2021/07/13 07:13:59;;;;;;;14.07;9.35;;;;;;;;;;143738;569;47010;-62
2021/07/13 07:16:26;;;;;;;15.30;8.65;;;;;;;;;;143739;576;46020;-62
2021/07/13 07:18:53;;;;;;;16.42;9.27;;;;;;;;;;143741;575;46012;-62
2021/07/13 07:21:19;;;;;;;12.32;8.95;;;;;;;;;;143740;659;46020;-61
2021/07/13 07:23:46;;;;;;;16.12;9.65;;;;;;;;;;143740;691;46020;-63
2021/07/13 07:26:13;;;;;;;10.77;8.75;;;;;;;;;;143740;581;46021;-62
2021/07/13 07:28:40;;;;;;;18.87;8.23;;;;;;;;;;143742;585;46012;-62
2021/07/13 07:31:07;;;;;;;14.65;8.88;;;;;;;;;;143742;576;46020;-62
2021/07/13 07:33:34;;;;;;;13.13;9.32;;;;;;;;;;143741;601;46021;-62
2021/07/13 07:36:01;;;;;;;17.33;8.73;;;;;;;;;;143737;574;46020;-62
2021/07/13 07:38:28;;;;;;;14.55;9.48;;;;;;;;;;143740;605;46020;-62
2021/07/13 07:40:55;;;;;;;10.05;8.32;;;;;;;;;;143741;627;46021;-62
2021/07/13 07:43:22;;;;;;;18.62;8.45;;;;;;;;;;143741;586;46010;-61
2021/07/13 07:45:49;;;;;;;17.48;10.07;;;;;;;;;;143740;611;46020;-62
2021/07/13 07:48:16;;;;;;;15.10;10.15;;;;;;;;;;143744;564;46012;-61
2021/07/13 07:50:43;;;;;;;24.15;10.90;;;;;;;;;;143741;647;46020;-62
2021/07/13 07:53:10;;;;;;;15.10;10.85;;;;;;;;;;143739;566;46020;-61
2021/07/13 07:55:38;;;;;;;11.20;8.98;;;;;;;;;;143740;590;46021;-61
2021/07/13 07:58:05;;;;;;;18.45;9.05;;;;;;;;;;143742;564;46020;-62
2021/07/13 08:00:32;;;;;;;14.82;8.98;;;;;;;;;;143741;603;47020;-62
2021/07/13 08:02:59;;;;;;;17.17;10.85;;;;;;;;;;143741;586;46020;-61
2021/07/13 08:05:26;;;;;;;13.48;8.75;;;;;;;;;;143743;579;46010;-63
2021/07/13 08:07:53;;;;;;;15.32;9.75;;;;;;;;;;143744;668;46012;-62
2021/07/13 08:10:21;;;;;;;15.73;10.82;;;;;;;;;;143740;594;47035;-61
2021/07/13 08:12:48;;;;;;;16.42;8.73;;;;;;;;;;143741;643;46010;-59
2021/07/13 08:15:16;;;;;;;14.75;9.00;;;;;;;;;;143739;612;46018;-61
2021/07/13 08:17:44;;;;;;;13.77;8.63;;;;;;;;;;143745;606;46012;-62
2021/07/13 08:20:13;;;;;;;12.20;8.43;;;;;;;;;;143735;570;49018;-61
2021/07/13 08:22:45;;;;;;;12.18;8.80;;;;;;;;;;143737;569;47010;-61
2021/07/13 08:25:13;;;;;;;10.48;9.02;;;;;;;;;;143739;569;46019;-62
2021/07/13 08:27:40;;;;;;;13.65;7.97;;;;;;;;;;143744;604;46012;-62
2021/07/13 08:30:07;;;;;;;13.90;8.77;;;;;;;;;;143740;628;46020;-61
2021/07/13 08:32:34;;;;;;;10.23;8.07;;;;;;;;;;143740;652;46023;-62
2021/07/13 08:35:01;;;;;;;9.98;8.70;;;;;;;;;;143741;564;46016;-61
2021/07/13 08:37:32;;;;;;;14.30;8.63;;;;;;;;;;143745;592;46012;-62
2021/07/13 08:40:07;;;;;;;11.38;8.55;;;;;;;;;;143742;589;46019;-61
2021/07/13 08:42:41;;;;;;;11.73;8.43;;;;;;;;;;143739;619;46010;-62
2021/07/13 08:45:14;;;;;;;9.77;7.50;;;;;;;;;;143743;612;46016;-60
2021/07/13 08:47:41;;;;;;;;;;;;;;;;;;143743;977;47012;-61
2021/07/13 08:50:10;;;;;;;12.07;7.95;;;;;;;;;;143734;603;50018;-59
2021/07/13 08:52:37;;;;;;;11.95;7.50;;;;;;;;;;143741;670;46022;-60
2021/07/13 08:55:06;;;;;;;12.20;7.85;;;;;;;;;;143741;588;46016;-61
2021/07/13 08:57:33;;;;;;;13.65;8.05;;;;;;;;;;143744;652;46012;-61
2021/07/13 09:00:00;;;;;;;10.38;7.55;;;;;;;;;;143741;609;47018;-60
2021/07/13 09:02:27;;;;;;;13.65;7.03;;;;;;;;;;143739;570;47010;-61
2021/07/13 09:04:54;;;;;;;14.82;8.27;;;;;;;;;;143741;574;46016;-60
2021/07/13 09:07:21;;;;;;;15.23;7.53;;;;;;;;;;143742;571;46012;-61
2021/07/13 09:09:52;;;;;;;13.82;8.65;;;;;;;;;;143743;576;47019;-60
2021/07/13 09:12:23;;;;;;;13.68;8.00;;;;;;;;;;143740;574;46022;-62
2021/07/13 09:15:09;;;;;;;11.37;7.77;;;;;;;;;;143742;565;46016;-61
2021/07/13 09:17:41;;;;;;;15.82;9.05;;;;;;;;;;143743;570;46023;-60
2021/07/13 09:20:23;;;;;;;16.35;9.35;;;;;;;;;;143742;594;47018;-61
2021/07/13 09:23:04;;;;;;;21.30;7.93;;;;;;;;;;143740;570;46014;-61
2021/07/13 09:25:36;;;;;;;15.57;7.43;;;;;;;;;;143740;613;46019;-61
2021/07/13 09:28:20;;;;;;;20.30;9.60;;;;;;;;;;143745;577;46012;-59
2021/07/13 09:30:59;;;;;;;16.65;8.50;;;;;;;;;;143740;585;47020;-61
2021/07/13 09:33:28;;;;;;;19.75;7.70;;;;;;;;;;143741;585;46023;-61
2021/07/13 09:36:00;;;;;;;15.00;7.70;;;;;;;;;;143743;653;46016;-61
2021/07/13 09:38:28;;;;;;;14.43;8.93;;;;;;;;;;143742;585;46013;-60
2021/07/13 09:41:06;;;;;;;15.27;8.02;;;;;;;;;;143741;582;47037;-60
2021/07/13 09:44:04;;;;;;;15.02;8.73;;;;;;;;;;143741;586;46020;-59
2021/07/13 09:46:46;;;;;;;19.87;8.50;;;;;;;;;;143732;570;46020;-60
2021/07/13 09:49:24;;;;;;;14.25;7.95;;;;;;;;;;143745;564;46012;-60
2021/07/13 09:52:02;;;;;;;9.43;6.80;;;;;;;;;;143742;616;46020;-60
2021/07/13 09:54:32;;;;;;;15.57;8.50;;;;;;;;;;143742;655;46010;-60
2021/07/13 09:57:18;;;;;;;15.85;9.18;;;;;;;;;;143743;653;46018;-60
2021/07/13 09:59:47;;;;;;;18.75;9.13;;;;;;;;;;143744;571;46012;-60
2021/07/13 10:02:18;;;;;;;11.00;7.97;;;;;;;;;;143739;584;47022;-59
2021/07/13 10:04:47;;;;;;;12.37;8.05;;;;;;;;;;143740;617;46020;-60
2021/07/13 10:07:18;;;;;;;11.52;7.60;;;;;;;;;;143740;661;46020;-59
2021/07/13 10:09:50;;;;;;;13.35;7.55;;;;;;;;;;143744;570;46012;-60
2021/07/13 10:12:20;;;;;;;16.25;7.55;;;;;;;;;;143741;582;46023;-60
2021/07/13 10:14:50;;;;;;;17.67;7.75;;;;;;;;;;143740;579;46020;-61
2021/07/13 10:17:17;;;;;;;16.65;8.45;;;;;;;;;;143742;578;45913;-61
2021/07/13 10:19:51;;;;;;;9.65;6.78;;;;;;;;;;143744;589;46012;-61
2021/07/13 10:22:20;;;;;;;12.15;7.80;;;;;;;;;;143739;579;47022;-58
2021/07/13 10:24:51;;;;;;;14.55;7.75;;;;;;;;;;143741;616;46021;-59
2021/07/13 10:27:30;;;;;;;15.57;8.02;;;;;;;;;;143742;575;46018;-60
2021/07/13 10:29:59;;;;;;;8.68;6.78;;;;;;;;;;143742;568;46012;-60
2021/07/13 10:32:38;;;;;;;12.25;7.37;;;;;;;;;;143742;566;46022;-60
2021/07/13 10:35:25;;;;;;;15.23;6.93;;;;;;;;;;143741;589;46010;-60
2021/07/13 10:37:59;;;;;;;13.02;7.87;;;;;;;;;;143739;634;46020;-60
2021/07/13 10:40:39;;;;;;;11.50;7.62;;;;;;;;;;143741;569;46020;-61
2021/07/13 10:43:17;;;;;;;15.32;7.80;;;;;;;;;;143741;584;46022;-61
2021/07/13 10:45:46;;;;;;;11.55;7.20;;;;;;;;;;143740;613;46011;-62
2021/07/13 10:48:18;;;;;;;16.50;8.75;;;;;;;;;;143741;610;46020;-60
2021/07/13 10:50:49;;;;;;;16.83;7.93;;;;;;;;;;143744;582;46020;-62
2021/07/13 10:53:43;;;;;;;10.57;8.20;;;;;;;;;;143744;606;46021;-62
2021/07/13 10:56:18;;;;;;;14.80;7.93;;;;;;;;;;143741;578;46021;-62
2021/07/13 10:58:52;;;;;;;13.68;8.38;;;;;;;;;;143741;590;46020;-60
2021/07/13 11:01:23;;;;;;;10.93;7.90;;;;;;;;;;143743;626;46013;-61
2021/07/13 11:03:52;;;;;;;12.02;7.18;;;;;;;;;;143742;566;46020;-61
2021/07/13 11:06:20;;;;;;;14.23;7.43;;;;;;;;;;143742;591;46020;-61
2021/07/13 11:08:51;;;;;;;15.80;7.10;;;;;;;;;;143743;583;46019;-61
2021/07/13 11:11:38;;;;;;;9.00;7.05;;;;;;;;;;143746;593;46012;-61
2021/07/13 11:14:07;;;;;;;8.90;7.55;;;;;;;;;;143744;565;46020;-60
2021/07/13 11:16:38;;;;;;;21.37;9.30;;;;;;;;;;143742;577;46010;-61
2021/07/13 11:19:11;;;;;;;11.73;8.25;;;;;;;;;;143741;577;46020;-61
2021/07/13 11:21:41;;;;;;;16.02;8.50;;;;;;;;;;143747;592;46020;-61
2021/07/13 11:24:13;;;;;;;11.18;7.28;;;;;;;;;;143742;664;46022;-60
2021/07/13 11:26:44;;;;;;;14.70;6.78;;;;;;;;;;143742;609;46010;-60
2021/07/13 11:29:22;;;;;;;12.48;7.43;;;;;;;;;;143744;616;46010;-61
2021/07/13 11:31:58;;;;;;;14.07;7.78;;;;;;;;;;143745;589;46012;-60
2021/07/13 11:34:30;;;;;;;13.52;9.15;;;;;;;;;;143742;577;46023;-61
2021/07/13 11:36:57;;;;;;;11.70;7.37;;;;;;;;;;143742;581;46010;-61
2021/07/13 11:39:34;;;;;;;16.77;9.32;;;;;;;;;;143744;598;46018;-61
2021/07/13 11:42:06;;;;;;;11.63;8.23;;;;;;;;;;143746;719;46020;-59
2021/07/13 11:44:36;;;;;;;16.75;8.35;;;;;;;;;;143745;595;46020;-60
2021/07/13 11:47:07;;;;;;;13.02;7.25;;;;;;;;;;143742;581;46021;-61
2021/07/13 11:49:35;;;;;;;10.25;7.57;;;;;;;;;;143745;611;46010;-61
2021/07/13 11:52:06;;;;;;;17.08;8.20;;;;;;;;;;143745;610;46012;-61
2021/07/13 11:54:35;;;;;;;13.68;7.68;;;;;;;;;;143744;644;46021;-59
2021/07/13 11:57:05;;;;;;;13.25;9.07;;;;;;;;;;143742;584;46020;-61
2021/07/13 11:59:33;;;;;;;14.07;8.30;;;;;;;;;;143742;588;46913;-59
2021/07/13 12:02:03;;;;;;;14.52;9.07;;;;;;;;;;143745;579;46007;-60
2021/07/13 12:04:32;;;;;;;16.98;8.60;;;;;;;;;;143743;600;46020;-61
2021/07/13 12:07:01;;;;;;;16.23;8.65;;;;;;;;;;143741;569;47010;-61
2021/07/13 12:09:39;;;;;;;13.18;8.73;;;;;;;;;;143741;564;46021;-60
2021/07/13 12:12:11;;;;;;;15.52;8.98;;;;;;;;;;143745;628;46012;-60
2021/07/13 12:14:41;;;;;;;13.95;9.50;;;;;;;;;;143742;598;46031;-59
2021/07/13 12:17:10;;;;;;;14.68;9.25;;;;;;;;;;143742;614;46010;-60
2021/07/13 12:19:38;;;;;;;12.70;8.98;;;;;;;;;;143744;600;46018;-60
2021/07/13 12:22:08;;;;;;;10.00;9.00;;;;;;;;;;143746;570;46012;-58
2021/07/13 12:24:45;;;;;;;15.80;8.15;;;;;;;;;;143745;594;46020;-58
2021/07/13 12:27:14;;;;;;;12.48;8.02;;;;;;;;;;143742;589;46020;-60
2021/07/13 12:29:55;;;;;;;13.20;8.85;;;;;;;;;;143742;608;46024;-59
2021/07/13 12:32:29;;;;;;;16.80;8.80;;;;;;;;;;143747;598;46021;-60
2021/07/13 12:34:57;;;;;;;11.52;8.85;;;;;;;;;;143743;591;46020;-59
2021/07/13 12:37:29;;;;;;;15.15;8.57;;;;;;;;;;143742;593;46013;-58
2021/07/13 12:40:27;;;;;;;10.23;8.30;;;;;;;;;;143741;582;46021;-59
2021/07/13 12:43:09;;;;;;;16.83;8.02;;;;;;;;;;143747;582;46014;-59
2021/07/13 12:45:36;;;;;;;9.90;7.65;;;;;;;;;;143741;587;47021;-60
2021/07/13 12:48:04;;;;;;;15.32;9.13;;;;;;;;;;143743;622;46020;-60
2021/07/13 12:50:32;;;;;;;9.80;8.80;;;;;;;;;;143743;601;46018;-60
2021/07/13 12:53:03;;;;;;;10.50;8.25;;;;;;;;;;143745;589;46013;-59
2021/07/13 12:55:37;;;;;;;10.48;8.02;;;;;;;;;;143743;589;46020;-59
2021/07/13 12:58:24;;;;;;;12.55;9.23;;;;;;;;;;143742;648;46020;-59
2021/07/13 13:00:55;;;;;;;10.05;8.15;;;;;;;;;;143740;578;46021;-60
2021/07/13 13:03:26;;;;;;;11.20;8.98;;;;;;;;;;143746;564;46014;-59
2021/07/13 13:05:57;;;;;;;11.60;7.87;;;;;;;;;;143743;573;46020;-59
2021/07/13 13:08:38;;;;;;;10.05;7.65;;;;;;;;;;143741;564;46919;-60
2021/07/13 13:11:13;;;;;;;10.77;7.68;;;;;;;;;;143742;605;46020;-60
2021/07/13 13:13:43;;;;;;;10.73;7.70;;;;;;;;;;143745;569;46014;-59
2021/07/13 13:16:24;;;;;;;9.90;7.40;;;;;;;;;;143744;570;46021;-59
2021/07/13 13:18:52;;;;;;;8.35;7.45;;;;;;;;;;143739;576;47919;-60
2021/07/13 13:21:19;;;;;;;10.15;7.75;;;;;;;;;;143742;643;46020;-60
2021/07/13 13:23:46;;;;;;;18.08;7.95;;;;;;;;;;143746;564;46014;-60
2021/07/13 13:26:13;;;;;;;11.32;8.27;;;;;;;;;;143743;612;46020;-59
2021/07/13 13:28:40;;;;;;;12.68;8.10;;;;;;;;;;143742;590;46012;-60
2021/07/13 13:31:07;;;;;;;10.05;7.87;;;;;;;;;;143744;621;46018;-61
2021/07/13 13:33:34;;;;;;;12.85;7.87;;;;;;;;;;143745;699;46014;-59
2021/07/13 13:36:17;;;;;;;12.00;8.07;;;;;;;;;;143743;603;46020;-61
2021/07/13 13:38:54;;;;;;;10.30;8.00;;;;;;;;;;143740;596;46021;-60
2021/07/13 13:41:21;;;;;;;10.75;8.35;;;;;;;;;;143730;580;46915;-61
2021/07/13 13:43:48;;;;;;;10.52;8.77;;;;;;;;;;143744;588;46014;-61
2021/07/13 13:46:15;;;;;;;13.93;8.15;;;;;;;;;;143742;702;46023;-61
2021/07/13 13:48:42;;;;;;;10.57;7.90;;;;;;;;;;143742;626;46012;-61
2021/07/13 13:51:10;;;;;;;11.48;7.65;;;;;;;;;;143744;611;46012;-61
2021/07/13 13:53:41;;;;;;;8.90;7.20;;;;;;;;;;143745;662;46014;-61
2021/07/13 13:56:16;;;;;;;9.35;6.75;;;;;;;;;;143740;589;47020;-61
2021/07/13 13:58:43;;;;;;;10.38;8.18;;;;;;;;;;143741;619;46927;-62
2021/07/13 14:01:15;;;;;;;11.73;7.80;;;;;;;;;;143742;644;46021;-60
2021/07/13 14:03:42;;;;;;;12.07;7.72;;;;;;;;;;143743;652;46014;-61
2021/07/13 14:06:10;;;;;;;11.38;8.10;;;;;;;;;;143743;589;46022;-61
2021/07/13 14:08:39;;;;;;;9.45;7.57;;;;;;;;;;143742;573;46013;-61
2021/07/13 14:11:07;;;;;;;11.27;7.65;;;;;;;;;;143743;613;46018;-60
2021/07/13 14:13:35;;;;;;;13.48;8.18;;;;;;;;;;143746;575;46020;-61
2021/07/13 14:16:03;;;;;;;9.90;7.62;;;;;;;;;;143742;573;47021;-61
2021/07/13 14:18:32;;;;;;;9.40;7.97;;;;;;;;;;143743;673;46020;-61
2021/07/13 14:21:01;;;;;;;14.13;8.25;;;;;;;;;;143743;649;46019;-60
2021/07/13 14:23:28;;;;;;;16.75;7.60;;;;;;;;;;143745;672;46021;-61
2021/07/13 14:25:55;;;;;;;10.30;7.62;;;;;;;;;;143745;621;46020;-61
2021/07/13 14:28:22;;;;;;;12.88;7.32;;;;;;;;;;143742;569;46030;-61
2021/07/13 14:30:49;;;;;;;8.77;7.37;;;;;;;;;;143741;579;46021;-61
2021/07/13 14:33:16;;;;;;;9.98;7.68;;;;;;;;;;143747;582;46014;-61
2021/07/13 14:35:43;;;;;;;11.75;7.72;;;;;;;;;;143742;597;46022;-61
2021/07/13 14:38:10;;;;;;;15.82;8.10;;;;;;;;;;143742;571;46021;-61
2021/07/13 14:40:38;;;;;;;9.63;7.75;;;;;;;;;;143742;621;46020;-61
2021/07/13 14:43:05;;;;;;;10.65;7.40;;;;;;;;;;143745;609;46014;-61
2021/07/13 14:45:32;;;;;;;10.88;7.40;;;;;;;;;;143741;656;47022;-61
2021/07/13 14:47:59;;;;;;;9.50;7.62;;;;;;;;;;143742;687;46020;-62